Time;durP1;ratioP1;P1;durP2;ratioP2;P2;SDS_P1;SDS_P2;PMS_P1;PMS_P2;Temp;Humidity;BMP_temperature;BMP_pressure;BME280_temperature;BME280_humidity;BME280_pressure;Samples;Min_cycle;Max_cycle;Signal;HPM_P1;HPM_P2
2022/01/13 00:00:16;;;;;;;;;;;19.80;57.00;;;;;;5115803;27;19932;-48
2022/01/13 00:02:42;;;;;;;;;;;19.80;57.10;;;;;;5116309;27;19923;-48
2022/01/13 00:05:11;;;;;;;;;;;19.80;57.10;;;;;;5115101;27;20415;-47
2022/01/13 00:07:38;;;;;;;;;;;19.70;57.50;;;;;;5120598;27;20263;-46
2022/01/13 00:10:05;;;;;;;;;;;19.70;57.50;;;;;;5123277;27;20022;-46
2022/01/13 00:12:36;;;;;;;;;;;19.70;57.50;;;;;;5119983;27;20022;-45
2022/01/13 00:15:22;;;;;;;;;;;19.70;57.30;;;;;;5141127;27;19939;-48
2022/01/13 00:18:01;;;;;;;;;;;19.70;57.00;;;;;;5116115;27;19927;-51
2022/01/13 00:20:38;;;;;;;;;;;19.80;57.10;;;;;;5111078;27;19924;-49
2022/01/13 00:25:54;;;;;;;;;;;19.70;57.00;;;;;;5133411;27;19927;-44
2022/01/13 00:28:22;;;;;;;;;;;19.70;57.10;;;;;;5116519;27;19923;-49
2022/01/13 00:30:53;;;;;;;;;;;19.70;56.80;;;;;;5134653;27;19927;-47
2022/01/13 00:33:23;;;;;;;;;;;19.70;56.80;;;;;;5129942;27;19959;-47
2022/01/13 00:35:52;;;;;;;;;;;19.70;56.70;;;;;;5113484;27;19930;-49
2022/01/13 00:38:18;;;;;;;;;;;19.80;57.00;;;;;;5126023;27;19931;-47
2022/01/13 00:40:45;;;;;;;;;;;19.70;57.00;;;;;;5112596;27;19931;-47
2022/01/13 00:43:16;;;;;;;;;;;19.70;56.90;;;;;;5138171;27;20094;-50
2022/01/13 00:45:48;;;;;;;;;;;19.70;56.80;;;;;;5114342;27;20003;-46
2022/01/13 00:48:15;;;;;;;;;;;19.70;56.60;;;;;;5127364;27;20437;-44
2022/01/13 00:50:41;;;;;;;;;;;19.70;56.60;;;;;;5131680;27;20035;-48
2022/01/13 00:53:09;;;;;;;;;;;19.70;56.70;;;;;;5112268;27;19923;-48
2022/01/13 00:55:47;;;;;;;;;;;19.80;56.90;;;;;;5123557;27;19943;-49
2022/01/13 00:58:14;;;;;;;;;;;19.70;56.50;;;;;;5135979;27;19931;-49
2022/01/13 01:00:41;;;;;;;;;;;19.70;56.60;;;;;;5113922;27;19927;-47
2022/01/13 01:03:08;;;;;;;;;;;19.70;55.80;;;;;;5114313;27;19934;-51
2022/01/13 01:05:37;;;;;;;;;;;19.70;53.60;;;;;;5115682;27;19923;-49
2022/01/13 01:08:04;;;;;;;;;;;19.70;50.30;;;;;;5133481;27;19934;-47
2022/01/13 01:10:32;;;;;;;;;;;19.80;50.20;;;;;;5114033;27;19931;-47
2022/01/13 01:12:59;;;;;;;;;;;19.80;50.10;;;;;;5114152;27;19930;-48
2022/01/13 01:15:27;;;;;;;;;;;19.70;50.10;;;;;;5114212;27;19928;-50
2022/01/13 01:18:01;;;;;;;;;;;19.70;50.00;;;;;;5130836;27;19939;-50
2022/01/13 01:20:34;;;;;;;;;;;19.70;49.90;;;;;;5132177;27;19931;-47
2022/01/13 01:23:11;;;;;;;;;;;19.60;49.80;;;;;;5118019;27;19930;-47
2022/01/13 01:25:58;;;;;;;;;;;19.80;50.00;;;;;;5114449;27;19928;-49
2022/01/13 01:28:34;;;;;;;;;;;19.80;50.10;;;;;;5111327;27;19927;-49
2022/01/13 01:31:00;;;;;;;;;;;19.70;49.90;;;;;;5107662;27;19953;-47
2022/01/13 01:33:27;;;;;;;;;;;19.70;50.00;;;;;;5116614;27;20607;-46
2022/01/13 01:35:56;;;;;;;;;;;19.70;49.90;;;;;;5133165;27;19932;-52
2022/01/13 01:38:23;;;;;;;;;;;19.70;50.00;;;;;;5114976;27;20369;-47
2022/01/13 01:40:54;;;;;;;;;;;19.80;50.00;;;;;;5113625;27;19924;-45
2022/01/13 01:43:21;;;;;;;;;;;19.70;49.90;;;;;;5131825;27;19935;-48
2022/01/13 01:45:50;;;;;;;;;;;19.80;50.00;;;;;;5110108;27;19971;-52
2022/01/13 01:48:20;;;;;;;;;;;19.80;50.00;;;;;;5139438;27;19934;-46
2022/01/13 01:50:55;;;;;;;;;;;19.70;50.00;;;;;;5112343;27;21348;-49
2022/01/13 01:53:22;;;;;;;;;;;19.70;49.90;;;;;;5126021;27;20007;-49
2022/01/13 01:55:49;;;;;;;;;;;19.70;50.00;;;;;;5132811;27;19929;-46
2022/01/13 01:58:17;;;;;;;;;;;19.70;50.00;;;;;;5132042;27;19962;-49
2022/01/13 02:00:44;;;;;;;;;;;19.70;50.00;;;;;;5112500;27;19924;-44
2022/01/13 02:03:30;;;;;;;;;;;19.70;49.90;;;;;;5103550;27;20061;-50
2022/01/13 02:05:56;;;;;;;;;;;19.80;50.00;;;;;;5093758;27;19983;-46
2022/01/13 02:08:23;;;;;;;;;;;19.60;49.90;;;;;;5112607;27;19933;-44
2022/01/13 02:10:50;;;;;;;;;;;19.80;50.00;;;;;;5127493;27;19967;-48
2022/01/13 02:13:23;;;;;;;;;;;19.70;49.90;;;;;;5114378;27;19931;-44
2022/01/13 02:16:01;;;;;;;;;;;19.70;50.00;;;;;;5115293;27;20404;-49
2022/01/13 02:18:29;;;;;;;;;;;19.70;50.00;;;;;;5078597;28;20380;-44
2022/01/13 02:20:59;;;;;;;;;;;19.70;50.00;;;;;;5113414;27;19964;-50
2022/01/13 02:23:34;;;;;;;;;;;19.80;50.10;;;;;;5108004;27;20011;-46
2022/01/13 02:26:01;;;;;;;;;;;19.60;50.00;;;;;;5113535;28;19930;-48
2022/01/13 02:28:28;;;;;;;;;;;19.80;50.10;;;;;;5132668;27;19928;-47
2022/01/13 02:30:55;;;;;;;;;;;19.60;50.10;;;;;;5113845;28;19930;-48
2022/01/13 02:33:22;;;;;;;;;;;19.70;50.10;;;;;;5114390;28;19966;-48
2022/01/13 02:35:49;;;;;;;;;;;19.70;50.10;;;;;;5131838;27;19963;-47
2022/01/13 02:38:17;;;;;;;;;;;19.70;50.20;;;;;;5106697;28;19923;-45
2022/01/13 02:40:43;;;;;;;;;;;19.70;50.20;;;;;;5107077;28;19996;-49
2022/01/13 02:43:10;;;;;;;;;;;19.70;50.30;;;;;;5115455;28;19931;-47
2022/01/13 02:45:50;;;;;;;;;;;19.70;50.20;;;;;;5131746;28;19977;-49
2022/01/13 02:48:30;;;;;;;;;;;19.70;50.20;;;;;;5114292;28;20012;-48
2022/01/13 02:50:57;;;;;;;;;;;19.70;50.20;;;;;;5132373;28;19984;-47
2022/01/13 02:53:25;;;;;;;;;;;19.70;50.30;;;;;;5125801;28;20459;-48
2022/01/13 02:55:54;;;;;;;;;;;19.80;50.40;;;;;;5139169;27;19927;-51
2022/01/13 02:58:21;;;;;;;;;;;19.70;50.20;;;;;;5112685;28;19924;-44
2022/01/13 03:00:48;;;;;;;;;;;19.80;50.30;;;;;;5109573;28;19928;-47
2022/01/13 03:03:15;;;;;;;;;;;19.80;50.40;;;;;;5113324;28;20427;-48
2022/01/13 03:05:42;;;;;;;;;;;19.70;50.30;;;;;;5132214;28;20467;-48
2022/01/13 03:08:09;;;;;;;;;;;19.80;50.40;;;;;;5114073;28;19935;-43
2022/01/13 03:10:38;;;;;;;;;;;19.70;50.30;;;;;;5110391;28;19930;-48
2022/01/13 03:13:05;;;;;;;;;;;19.80;50.40;;;;;;5097207;28;19928;-46
2022/01/13 03:15:32;;;;;;;;;;;19.70;50.30;;;;;;5130450;27;19928;-48
2022/01/13 03:17:59;;;;;;;;;;;19.70;50.30;;;;;;5108115;28;19931;-48
2022/01/13 03:20:25;;;;;;;;;;;19.70;50.30;;;;;;5128785;28;19923;-46
2022/01/13 03:22:52;;;;;;;;;;;19.70;50.30;;;;;;5114171;28;20000;-46
2022/01/13 03:25:22;;;;;;;;;;;19.70;50.30;;;;;;5114434;28;19924;-46
2022/01/13 03:27:55;;;;;;;;;;;19.80;50.50;;;;;;5115408;27;19946;-49
2022/01/13 03:30:22;;;;;;;;;;;19.70;50.40;;;;;;5136240;27;19930;-46
2022/01/13 03:32:49;;;;;;;;;;;19.80;50.40;;;;;;5116887;27;19923;-49
2022/01/13 03:35:16;;;;;;;;;;;19.70;50.30;;;;;;5118550;27;19928;-43
2022/01/13 03:37:43;;;;;;;;;;;19.70;50.30;;;;;;5114925;27;19924;-47
2022/01/13 03:40:11;;;;;;;;;;;19.80;50.40;;;;;;5116510;27;19932;-49
2022/01/13 03:42:37;;;;;;;;;;;19.70;50.30;;;;;;5114839;27;20010;-45
2022/01/13 03:45:06;;;;;;;;;;;19.70;50.40;;;;;;5135807;27;20356;-46
2022/01/13 03:47:33;;;;;;;;;;;19.70;50.30;;;;;;5135511;27;19923;-47
2022/01/13 03:50:00;;;;;;;;;;;19.80;50.40;;;;;;5135958;27;20023;-49
2022/01/13 03:52:45;;;;;;;;;;;19.60;50.30;;;;;;5105627;27;19928;-48
2022/01/13 03:55:35;;;;;;;;;;;19.70;50.40;;;;;;5114674;27;19927;-52
2022/01/13 03:58:21;;;;;;;;;;;19.70;50.30;;;;;;5116846;27;19927;-44
2022/01/13 04:01:17;;;;;;;;;;;19.70;50.40;;;;;;5112135;27;20022;-45
2022/01/13 04:03:44;;;;;;;;;;;19.80;50.50;;;;;;5111381;27;19923;-50
2022/01/13 04:06:37;;;;;;;;;;;19.70;50.50;;;;;;5139928;27;19927;-43
2022/01/13 04:09:04;;;;;;;;;;;19.70;50.50;;;;;;5120625;27;19924;-46
2022/01/13 04:11:32;;;;;;;;;;;19.80;50.60;;;;;;5114962;27;19934;-50
2022/01/13 04:14:01;;;;;;;;;;;19.70;50.50;;;;;;5131636;27;19950;-45
2022/01/13 04:16:30;;;;;;;;;;;19.70;50.60;;;;;;5131240;27;19951;-44
2022/01/13 04:18:59;;;;;;;;;;;19.70;50.50;;;;;;5116339;27;20411;-49
2022/01/13 04:21:26;;;;;;;;;;;19.70;50.60;;;;;;5111370;27;20038;-51
2022/01/13 04:23:56;;;;;;;;;;;19.80;50.60;;;;;;5114249;27;20425;-42
2022/01/13 04:26:28;;;;;;;;;;;19.70;50.60;;;;;;5130287;27;19919;-48
2022/01/13 04:29:03;;;;;;;;;;;19.80;50.60;;;;;;5103075;27;19927;-46
2022/01/13 04:31:31;;;;;;;;;;;19.80;50.60;;;;;;5116124;27;19923;-43
2022/01/13 04:33:58;;;;;;;;;;;19.70;50.60;;;;;;5114628;27;20022;-45
2022/01/13 04:36:25;;;;;;;;;;;19.70;50.50;;;;;;5116523;27;19957;-50
2022/01/13 04:38:52;;;;;;;;;;;19.80;50.60;;;;;;5114836;27;19924;-52
2022/01/13 04:41:29;;;;;;;;;;;19.70;50.60;;;;;;5116367;27;20018;-46
2022/01/13 04:43:57;;;;;;;;;;;19.70;50.60;;;;;;5112790;27;19941;-46
2022/01/13 04:46:24;;;;;;;;;;;19.80;50.60;;;;;;5115582;27;19980;-46
2022/01/13 04:48:52;;;;;;;;;;;19.70;50.60;;;;;;5110457;27;20391;-45
2022/01/13 04:51:19;;;;;;;;;;;19.70;50.60;;;;;;5115634;27;19972;-46
2022/01/13 04:53:45;;;;;;;;;;;19.70;50.60;;;;;;5116414;27;19951;-48
2022/01/13 04:56:15;;;;;;;;;;;19.80;50.60;;;;;;5131332;27;19934;-46
2022/01/13 04:58:42;;;;;;;;;;;19.80;50.60;;;;;;5133485;27;19927;-46
2022/01/13 05:01:09;;;;;;;;;;;19.70;50.60;;;;;;5118384;27;19930;-47
2022/01/13 05:03:35;;;;;;;;;;;19.70;50.60;;;;;;5121425;27;19930;-46
2022/01/13 05:06:04;;;;;;;;;;;19.70;50.60;;;;;;5131622;27;20011;-46
2022/01/13 05:08:31;;;;;;;;;;;19.70;50.60;;;;;;5115669;27;19972;-49
2022/01/13 05:10:58;;;;;;;;;;;19.80;50.60;;;;;;5114593;27;20392;-49
2022/01/13 05:13:24;;;;;;;;;;;19.70;50.60;;;;;;5142490;27;19931;-45
2022/01/13 05:15:53;;;;;;;;;;;19.80;50.70;;;;;;5132693;27;20036;-45
2022/01/13 05:18:27;;;;;;;;;;;19.70;50.60;;;;;;5116123;27;20380;-44
2022/01/13 05:21:01;;;;;;;;;;;19.70;50.60;;;;;;5114474;27;19924;-43
2022/01/13 05:23:29;;;;;;;;;;;19.90;50.80;;;;;;5133153;27;19930;-43
2022/01/13 05:25:56;;;;;;;;;;;19.60;50.60;;;;;;5116575;27;19954;-47
2022/01/13 05:28:23;;;;;;;;;;;19.80;50.70;;;;;;5116122;27;19945;-48
2022/01/13 05:30:50;;;;;;;;;;;19.80;50.70;;;;;;5116107;27;19934;-48
2022/01/13 05:33:16;;;;;;;;;;;19.70;50.70;;;;;;5140083;27;20424;-43
2022/01/13 05:35:43;;;;;;;;;;;19.70;50.60;;;;;;5116199;27;20006;-45
2022/01/13 05:38:10;;;;;;;;;;;19.80;50.70;;;;;;5109968;27;20051;-46
2022/01/13 05:40:38;;;;;;;;;;;19.80;50.90;;;;;;5130701;27;19930;-46
2022/01/13 05:43:05;;;;;;;;;;;19.80;50.80;;;;;;5138788;27;19927;-47
2022/01/13 05:45:33;;;;;;;;;;;19.80;50.80;;;;;;5110915;27;20018;-45
2022/01/13 05:48:00;;;;;;;;;;;19.80;50.80;;;;;;5115797;27;19927;-50
2022/01/13 05:50:27;;;;;;;;;;;19.70;50.70;;;;;;5134609;27;19971;-49
2022/01/13 05:52:54;;;;;;;;;;;19.80;50.80;;;;;;5117003;27;20370;-46
2022/01/13 05:55:21;;;;;;;;;;;19.80;50.80;;;;;;5115438;27;19991;-44
2022/01/13 05:57:49;;;;;;;;;;;19.80;50.80;;;;;;5130506;27;20295;-43
2022/01/13 06:00:16;;;;;;;;;;;19.80;50.80;;;;;;5113612;28;19923;-48
2022/01/13 06:02:43;;;;;;;;;;;19.60;50.70;;;;;;5132842;27;19951;-45
2022/01/13 06:05:10;;;;;;;;;;;19.80;50.80;;;;;;5127213;27;19938;-45
2022/01/13 06:07:37;;;;;;;;;;;19.70;50.70;;;;;;5113615;27;19946;-52
2022/01/13 06:10:04;;;;;;;;;;;19.80;50.80;;;;;;5133577;27;20329;-44
2022/01/13 06:12:35;;;;;;;;;;;19.80;50.80;;;;;;5107689;27;20020;-47
2022/01/13 06:15:04;;;;;;;;;;;19.80;50.90;;;;;;5131918;27;19927;-49
2022/01/13 06:17:31;;;;;;;;;;;19.70;50.80;;;;;;5116032;27;19947;-44
2022/01/13 06:19:59;;;;;;;;;;;19.80;50.90;;;;;;5131312;27;19934;-43
2022/01/13 06:22:26;;;;;;;;;;;19.80;50.90;;;;;;5141428;27;20379;-45
2022/01/13 06:24:53;;;;;;;;;;;19.80;50.90;;;;;;5133465;27;19930;-52
2022/01/13 06:27:21;;;;;;;;;;;19.90;51.10;;;;;;5111610;28;19931;-48
2022/01/13 06:29:48;;;;;;;;;;;19.80;51.10;;;;;;5113470;27;19931;-46
2022/01/13 06:32:16;;;;;;;;;;;19.70;51.00;;;;;;5116571;28;19974;-44
2022/01/13 06:34:43;;;;;;;;;;;19.70;51.00;;;;;;5113290;27;19923;-43
2022/01/13 06:37:11;;;;;;;;;;;19.80;51.00;;;;;;5132883;27;19924;-49
2022/01/13 06:39:37;;;;;;;;;;;19.70;51.00;;;;;;5112233;28;19933;-47
2022/01/13 06:42:04;;;;;;;;;;;19.70;51.10;;;;;;5113460;28;19932;-50
2022/01/13 06:44:31;;;;;;;;;;;19.80;51.00;;;;;;5144446;27;19927;-45
2022/01/13 06:46:58;;;;;;;;;;;19.60;50.90;;;;;;5106903;28;19934;-45
2022/01/13 06:49:26;;;;;;;;;;;19.80;51.10;;;;;;5142980;27;19959;-51
2022/01/13 06:51:53;;;;;;;;;;;19.90;51.10;;;;;;5132606;28;19972;-50
2022/01/13 06:54:20;;;;;;;;;;;19.80;51.10;;;;;;5111173;28;19959;-49
2022/01/13 06:56:46;;;;;;;;;;;19.70;51.00;;;;;;5109834;28;19924;-46
2022/01/13 06:59:13;;;;;;;;;;;19.80;51.10;;;;;;5110045;28;19962;-50
2022/01/13 07:01:41;;;;;;;;;;;19.90;51.20;;;;;;5113922;27;19988;-43
2022/01/13 07:04:09;;;;;;;;;;;19.80;51.10;;;;;;5114297;27;20010;-48
2022/01/13 07:06:37;;;;;;;;;;;19.80;51.20;;;;;;5115609;27;19981;-49
2022/01/13 07:09:05;;;;;;;;;;;19.90;51.20;;;;;;5113949;27;19923;-49
2022/01/13 07:11:32;;;;;;;;;;;19.70;50.90;;;;;;5114557;27;19935;-45
2022/01/13 07:13:58;;;;;;;;;;;19.80;51.10;;;;;;5117618;27;19949;-48
2022/01/13 07:16:25;;;;;;;;;;;19.80;51.20;;;;;;5118027;27;19963;-48
2022/01/13 07:18:52;;;;;;;;;;;19.80;51.10;;;;;;5117758;27;19923;-45
2022/01/13 07:21:21;;;;;;;;;;;19.80;51.20;;;;;;5117407;27;19930;-49
2022/01/13 07:23:49;;;;;;;;;;;19.80;51.20;;;;;;5114194;27;20477;-49
2022/01/13 07:26:16;;;;;;;;;;;19.80;51.20;;;;;;5111409;27;19923;-46
2022/01/13 07:28:43;;;;;;;;;;;19.70;51.20;;;;;;5147634;27;19923;-50
2022/01/13 07:31:10;;;;;;;;;;;19.80;51.20;;;;;;5114681;27;19988;-46
2022/01/13 07:33:36;;;;;;;;;;;19.80;51.20;;;;;;5117068;27;19923;-49
2022/01/13 07:36:03;;;;;;;;;;;19.70;51.20;;;;;;5113945;27;19927;-50
2022/01/13 07:38:30;;;;;;;;;;;19.80;51.20;;;;;;5118469;27;19927;-44
2022/01/13 07:40:58;;;;;;;;;;;19.80;51.20;;;;;;5117462;27;19931;-44
2022/01/13 07:43:25;;;;;;;;;;;19.80;51.40;;;;;;5124148;27;20014;-52
2022/01/13 07:45:53;;;;;;;;;;;19.80;51.70;;;;;;5124863;27;19953;-50
2022/01/13 07:48:22;;;;;;;;;;;19.80;51.70;;;;;;5144771;27;19923;-58
2022/01/13 07:50:49;;;;;;;;;;;19.80;51.50;;;;;;5126630;27;19974;-55
2022/01/13 07:53:15;;;;;;;;;;;19.80;51.50;;;;;;5124661;27;19923;-55
2022/01/13 07:55:43;;;;;;;;;;;19.80;51.40;;;;;;5140727;27;20279;-54
2022/01/13 07:58:12;;;;;;;;;;;19.90;51.40;;;;;;5116200;27;20351;-51
2022/01/13 08:00:38;;;;;;;;;;;19.80;51.30;;;;;;5157195;27;20008;-57
2022/01/13 08:03:05;;;;;;;;;;;19.80;51.20;;;;;;5124432;27;19951;-53
2022/01/13 08:05:32;;;;;;;;;;;19.70;51.10;;;;;;5132438;27;19927;-44
2022/01/13 08:07:59;;;;;;;;;;;19.70;64.90;;;;;;5127688;27;19923;-44
2022/01/13 08:10:26;;;;;;;;;;;19.70;65.30;;;;;;5103273;27;19939;-45
2022/01/13 08:12:53;;;;;;;;;;;19.80;64.40;;;;;;5105903;27;19991;-44
2022/01/13 08:15:21;;;;;;;;;;;19.70;64.50;;;;;;5114247;27;20010;-44
2022/01/13 08:20:33;;;;;;;;;;;19.70;62.50;;;;;;5123851;27;20007;-49
2022/01/13 08:23:00;;;;;;;;;;;19.70;64.90;;;;;;5107144;27;20372;-48
2022/01/13 08:25:27;;;;;;;;;;;19.60;65.40;;;;;;5109049;27;19958;-45
2022/01/13 08:27:54;;;;;;;;;;;19.70;66.90;;;;;;5106784;27;19930;-44
2022/01/13 08:30:22;;;;;;;;;;;19.70;63.80;;;;;;5122897;27;20292;-49
2022/01/13 08:32:49;;;;;;;;;;;19.70;62.70;;;;;;5109629;27;19995;-54
2022/01/13 08:35:16;;;;;;;;;;;19.80;62.80;;;;;;5109332;27;20038;-50
2022/01/13 08:37:43;;;;;;;;;;;19.80;63.40;;;;;;5106275;27;20459;-51
2022/01/13 08:40:11;;;;;;;;;;;19.80;45.10;;;;;;5130102;27;19930;-45
2022/01/13 08:42:37;;;;;;;;;;;19.80;43.80;;;;;;5111932;27;19924;-47
2022/01/13 08:45:05;;;;;;;;;;;19.80;42.80;;;;;;5110425;27;19959;-49
2022/01/13 08:47:35;;;;;;;;;;;19.80;42.30;;;;;;5109701;27;20401;-43
2022/01/13 08:50:02;;;;;;;;;;;19.80;42.00;;;;;;5107050;27;20383;-46
2022/01/13 08:52:28;;;;;;;;;;;19.80;42.00;;;;;;5112505;27;20362;-45
2022/01/13 08:54:56;;;;;;;;;;;19.70;41.60;;;;;;5125129;27;20250;-46
2022/01/13 08:57:26;;;;;;;;;;;19.80;41.60;;;;;;5112899;27;19928;-46
2022/01/13 08:59:53;;;;;;;;;;;19.80;41.50;;;;;;5106882;27;19935;-45
2022/01/13 09:02:20;;;;;;;;;;;19.80;41.30;;;;;;5112900;27;19927;-44
2022/01/13 09:04:49;;;;;;;;;;;19.80;41.20;;;;;;5111513;27;19976;-46
2022/01/13 09:07:16;;;;;;;;;;;19.90;41.20;;;;;;5129762;27;20380;-46
2022/01/13 09:09:43;;;;;;;;;;;19.90;41.20;;;;;;5108582;27;19924;-50
2022/01/13 09:12:10;;;;;;;;;;;19.80;41.20;;;;;;5103230;27;19942;-49
2022/01/13 09:14:38;;;;;;;;;;;19.90;41.20;;;;;;5109050;27;20022;-45
2022/01/13 09:17:09;;;;;;;;;;;19.90;41.20;;;;;;5128994;27;19988;-45
2022/01/13 09:19:36;;;;;;;;;;;19.90;41.20;;;;;;5128245;27;20309;-47
2022/01/13 09:22:04;;;;;;;;;;;19.90;41.20;;;;;;5103270;28;19932;-44
2022/01/13 09:24:31;;;;;;;;;;;19.90;41.20;;;;;;5106707;27;19994;-43
2022/01/13 09:26:58;;;;;;;;;;;19.90;41.30;;;;;;5110003;27;20046;-47
2022/01/13 09:29:25;;;;;;;;;;;19.90;41.30;;;;;;5128522;27;19934;-44
2022/01/13 09:31:52;;;;;;;;;;;19.90;41.20;;;;;;5110349;27;20502;-48
2022/01/13 09:34:19;;;;;;;;;;;19.90;41.30;;;;;;5130069;27;19923;-46
2022/01/13 09:36:45;;;;;;;;;;;19.90;41.30;;;;;;5122984;27;20341;-48
2022/01/13 09:39:14;;;;;;;;;;;19.90;41.30;;;;;;5110073;27;20351;-47
2022/01/13 09:41:42;;;;;;;;;;;19.90;41.30;;;;;;5103996;27;20010;-44
2022/01/13 09:44:09;;;;;;;;;;;19.90;41.30;;;;;;5128679;27;19988;-45
2022/01/13 09:46:35;;;;;;;;;;;20.00;41.50;;;;;;5126292;27;19930;-46
2022/01/13 09:49:04;;;;;;;;;;;19.90;41.30;;;;;;5127994;27;19927;-45
2022/01/13 09:51:31;;;;;;;;;;;20.00;41.40;;;;;;5108354;27;20345;-44
2022/01/13 09:53:58;;;;;;;;;;;19.90;41.30;;;;;;5128345;27;19935;-49
2022/01/13 09:56:26;;;;;;;;;;;20.00;41.40;;;;;;5105931;27;19990;-47
2022/01/13 09:58:53;;;;;;;;;;;20.00;41.40;;;;;;5107863;27;19934;-49
2022/01/13 10:01:20;;;;;;;;;;;20.00;41.50;;;;;;5132637;27;19935;-49
2022/01/13 10:03:47;;;;;;;;;;;20.00;41.50;;;;;;5145115;27;19963;-46
2022/01/13 10:06:14;;;;;;;;;;;20.00;41.50;;;;;;5104562;27;19927;-45
2022/01/13 10:08:41;;;;;;;;;;;20.00;41.50;;;;;;5128286;27;19931;-45
2022/01/13 10:11:23;;;;;;;;;;;20.00;41.40;;;;;;5107054;27;20049;-50
2022/01/13 10:14:02;;;;;;;;;;;20.00;41.50;;;;;;5107225;27;19980;-48
2022/01/13 10:16:28;;;;;;;;;;;20.00;41.50;;;;;;5108171;27;20025;-50
2022/01/13 10:18:55;;;;;;;;;;;20.00;41.60;;;;;;5123607;27;19927;-45
2022/01/13 10:21:22;;;;;;;;;;;20.00;41.60;;;;;;5105023;27;19974;-49
2022/01/13 10:24:02;;;;;;;;;;;20.10;41.60;;;;;;5122883;27;20340;-49
2022/01/13 10:26:29;;;;;;;;;;;20.10;41.70;;;;;;5107628;27;19987;-49
2022/01/13 10:28:56;;;;;;;;;;;20.10;41.60;;;;;;5110338;27;20025;-44
2022/01/13 10:31:24;;;;;;;;;;;20.10;41.60;;;;;;5101301;27;19934;-46
2022/01/13 10:33:51;;;;;;;;;;;20.00;41.60;;;;;;5123373;27;19950;-48
2022/01/13 10:36:17;;;;;;;;;;;20.10;41.60;;;;;;5106636;27;19927;-44
2022/01/13 10:38:51;;;;;;;;;;;20.10;41.60;;;;;;5107591;27;20463;-48
2022/01/13 10:41:29;;;;;;;;;;;20.10;41.60;;;;;;5092523;28;19981;-52
2022/01/13 10:44:10;;;;;;;;;;;20.10;41.60;;;;;;5126214;28;19929;-45
2022/01/13 10:46:52;;;;;;;;;;;20.10;41.60;;;;;;5098281;28;19923;-45
2022/01/13 10:49:20;;;;;;;;;;;20.10;41.60;;;;;;5137047;27;19946;-44
2022/01/13 10:51:47;;;;;;;;;;;20.10;41.50;;;;;;5107683;28;20273;-46
2022/01/13 10:54:24;;;;;;;;;;;20.10;41.60;;;;;;5125400;28;19932;-46
2022/01/13 10:56:50;;;;;;;;;;;20.10;41.60;;;;;;5107065;28;19938;-47
2022/01/13 10:59:32;;;;;;;;;;;20.10;41.50;;;;;;5125349;28;19957;-49
2022/01/13 11:02:08;;;;;;;;;;;20.10;41.60;;;;;;5099150;28;19963;-49
2022/01/13 11:04:37;;;;;;;;;;;20.10;41.50;;;;;;5126125;28;19924;-48
2022/01/13 11:07:14;;;;;;;;;;;20.10;41.50;;;;;;5107396;28;19984;-44
2022/01/13 11:09:42;;;;;;;;;;;20.10;41.50;;;;;;5106522;28;19985;-47
2022/01/13 11:12:10;;;;;;;;;;;20.10;41.50;;;;;;5125546;28;19930;-47
2022/01/13 11:14:41;;;;;;;;;;;20.10;41.50;;;;;;5124581;28;19976;-45
2022/01/13 11:17:08;;;;;;;;;;;20.10;41.50;;;;;;5108621;28;19973;-49
2022/01/13 11:19:36;;;;;;;;;;;20.10;41.50;;;;;;5106943;28;20050;-47
2022/01/13 11:22:03;;;;;;;;;;;20.10;41.50;;;;;;5132176;27;19920;-48
2022/01/13 11:24:30;;;;;;;;;;;20.20;41.60;;;;;;5100967;28;20014;-46
2022/01/13 11:26:57;;;;;;;;;;;20.10;41.50;;;;;;5102645;28;19954;-47
2022/01/13 11:29:24;;;;;;;;;;;20.20;41.60;;;;;;5108255;28;19943;-49
2022/01/13 11:31:51;;;;;;;;;;;20.10;41.50;;;;;;5121974;28;19977;-52
2022/01/13 11:34:18;;;;;;;;;;;20.20;41.60;;;;;;5110046;28;19966;-50
2022/01/13 11:36:46;;;;;;;;;;;20.20;41.60;;;;;;5110317;28;19974;-46
2022/01/13 11:39:13;;;;;;;;;;;20.20;41.60;;;;;;5108936;28;19977;-47
2022/01/13 11:41:54;;;;;;;;;;;20.20;41.60;;;;;;5106968;28;19943;-48
2022/01/13 11:44:22;;;;;;;;;;;20.10;41.50;;;;;;5101840;28;20072;-46
2022/01/13 11:46:49;;;;;;;;;;;20.20;41.60;;;;;;5126484;27;19966;-52
2022/01/13 11:49:20;;;;;;;;;;;20.10;41.50;;;;;;5109289;27;19924;-50
2022/01/13 11:51:56;;;;;;;;;;;20.10;41.50;;;;;;5129716;27;19965;-48
2022/01/13 11:54:26;;;;;;;;;;;20.20;41.60;;;;;;5105707;27;19988;-49
2022/01/13 11:57:09;;;;;;;;;;;20.20;41.60;;;;;;5109082;27;20333;-50
2022/01/13 11:59:36;;;;;;;;;;;20.20;41.60;;;;;;5116985;27;19931;-59
2022/01/13 12:02:18;;;;;;;;;;;20.10;41.60;;;;;;5116370;27;19935;-57
2022/01/13 12:04:59;;;;;;;;;;;20.10;41.60;;;;;;5115540;27;19947;-58
2022/01/13 12:07:36;;;;;;;;;;;20.10;41.50;;;;;;5133684;27;19923;-59
2022/01/13 12:10:04;;;;;;;;;;;20.10;41.40;;;;;;5122337;27;19919;-60
2022/01/13 12:12:31;;;;;;;;;;;20.10;41.30;;;;;;5117129;27;20138;-57
2022/01/13 12:15:13;;;;;;;;;;;20.10;41.20;;;;;;5114360;27;20012;-55
2022/01/13 12:17:43;;;;;;;;;;;20.10;41.10;;;;;;5114479;28;19928;-59
2022/01/13 12:20:20;;;;;;;;;;;20.10;41.10;;;;;;5110532;27;20514;-56
2022/01/13 12:22:57;;;;;;;;;;;20.10;41.00;;;;;;5119474;27;19939;-60
2022/01/13 12:25:31;;;;;;;;;;;20.00;41.00;;;;;;5116005;27;20126;-59
2022/01/13 12:27:58;;;;;;;;;;;20.00;40.90;;;;;;5116378;27;19934;-57
2022/01/13 12:30:26;;;;;;;;;;;20.00;40.90;;;;;;5118287;27;19941;-57
2022/01/13 12:32:54;;;;;;;;;;;20.00;40.80;;;;;;5118764;27;19923;-60
2022/01/13 12:35:41;;;;;;;;;;;20.00;40.80;;;;;;5129451;27;19931;-60
2022/01/13 12:38:09;;;;;;;;;;;20.00;40.80;;;;;;5112373;27;20328;-58
2022/01/13 12:40:41;;;;;;;;;;;20.00;40.80;;;;;;5120950;27;19923;-55
2022/01/13 12:43:21;;;;;;;;;;;19.90;40.70;;;;;;5119021;27;19980;-59
2022/01/13 12:45:48;;;;;;;;;;;19.90;40.80;;;;;;5110061;28;19931;-58
2022/01/13 12:48:15;;;;;;;;;;;19.90;40.70;;;;;;5113644;27;20337;-60
2022/01/13 12:50:42;;;;;;;;;;;19.90;40.70;;;;;;5114029;27;19986;-59
2022/01/13 12:53:12;;;;;;;;;;;19.90;40.70;;;;;;5119989;27;19976;-59
2022/01/13 12:55:40;;;;;;;;;;;19.90;40.70;;;;;;5127943;27;19928;-58
2022/01/13 12:58:09;;;;;;;;;;;19.90;40.70;;;;;;5118169;27;19932;-59
2022/01/13 13:00:37;;;;;;;;;;;19.90;40.70;;;;;;5118937;27;19927;-60
2022/01/13 13:03:07;;;;;;;;;;;19.90;40.70;;;;;;5114846;27;19967;-60
2022/01/13 13:05:45;;;;;;;;;;;19.80;40.70;;;;;;5117884;27;20003;-59
2022/01/13 13:08:15;;;;;;;;;;;19.90;40.80;;;;;;5118763;27;19923;-60
2022/01/13 13:10:42;;;;;;;;;;;19.80;40.70;;;;;;5116219;27;19930;-56
2022/01/13 13:13:09;;;;;;;;;;;19.80;40.80;;;;;;5120523;27;19927;-55
2022/01/13 13:15:40;;;;;;;;;;;19.80;40.90;;;;;;5136550;27;19919;-59
2022/01/13 13:18:10;;;;;;;;;;;19.80;40.80;;;;;;5115477;27;19927;-58
2022/01/13 13:20:37;;;;;;;;;;;19.80;40.90;;;;;;5114400;27;19924;-57
2022/01/13 13:23:06;;;;;;;;;;;19.80;40.90;;;;;;5121022;27;20158;-59
2022/01/13 13:25:35;;;;;;;;;;;19.80;40.90;;;;;;5119481;27;19927;-54
2022/01/13 13:28:38;;;;;;;;;;;19.80;40.90;;;;;;5135524;27;19938;-59
2022/01/13 13:31:06;;;;;;;;;;;19.80;40.90;;;;;;5144895;27;19923;-59
2022/01/13 13:33:37;;;;;;;;;;;19.80;40.90;;;;;;5118258;27;19999;-60
2022/01/13 13:36:04;;;;;;;;;;;19.80;40.90;;;;;;5114313;27;20581;-59
2022/01/13 13:38:32;;;;;;;;;;;19.80;40.90;;;;;;5112704;27;19976;-58
2022/01/13 13:41:00;;;;;;;;;;;19.80;40.90;;;;;;5151263;27;19927;-56
2022/01/13 13:43:30;;;;;;;;;;;19.80;40.90;;;;;;5119133;27;19924;-57
2022/01/13 13:46:01;;;;;;;;;;;19.80;40.90;;;;;;5126656;27;20026;-60
2022/01/13 13:48:28;;;;;;;;;;;19.80;40.90;;;;;;5114187;27;19924;-57
2022/01/13 13:50:55;;;;;;;;;;;19.80;40.90;;;;;;5110487;27;19923;-56
2022/01/13 13:53:22;;;;;;;;;;;19.80;40.90;;;;;;5124523;27;20003;-56
2022/01/13 13:55:56;;;;;;;;;;;19.80;40.80;;;;;;5116818;27;19972;-59
2022/01/13 13:58:24;;;;;;;;;;;19.80;40.90;;;;;;5119164;27;19934;-55
2022/01/13 14:00:57;;;;;;;;;;;19.80;40.90;;;;;;5117541;27;20337;-57
2022/01/13 14:03:36;;;;;;;;;;;19.80;40.90;;;;;;5134726;27;19927;-59
2022/01/13 14:06:03;;;;;;;;;;;19.80;40.90;;;;;;5136972;27;19930;-59
2022/01/13 14:08:30;;;;;;;;;;;19.80;41.00;;;;;;5115357;27;19970;-61
2022/01/13 14:11:06;;;;;;;;;;;19.80;41.00;;;;;;5134942;27;19932;-58
2022/01/13 14:13:34;;;;;;;;;;;19.80;41.00;;;;;;5110404;27;19924;-60
2022/01/13 14:16:01;;;;;;;;;;;19.80;41.00;;;;;;5121515;27;19924;-59
2022/01/13 14:18:28;;;;;;;;;;;19.80;41.10;;;;;;5119425;27;19950;-58
2022/01/13 14:20:57;;;;;;;;;;;19.80;41.10;;;;;;5135348;27;19933;-54
2022/01/13 14:23:24;;;;;;;;;;;19.80;41.10;;;;;;5116822;28;20375;-57
2022/01/13 14:25:53;;;;;;;;;;;19.80;41.20;;;;;;5121177;27;19928;-56
2022/01/13 14:28:25;;;;;;;;;;;19.80;41.20;;;;;;5133991;27;20418;-57
2022/01/13 14:30:59;;;;;;;;;;;19.80;41.20;;;;;;5111788;27;19967;-59
2022/01/13 14:33:27;;;;;;;;;;;19.80;41.20;;;;;;5119544;27;19931;-61